createdAt,value
2023-03-02T00:01:40.453Z,59.72
2023-03-02T00:04:13.028Z,59.84
2023-03-02T00:06:40.320Z,60.04
2023-03-02T00:09:07.514Z,60.27
2023-03-02T00:11:37.747Z,60.07
2023-03-02T00:14:05.393Z,59.99
2023-03-02T00:16:33.121Z,59.83
2023-03-02T00:19:00.430Z,60.41
2023-03-02T00:21:27.508Z,60.78
2023-03-02T00:23:54.560Z,60.10
2023-03-02T00:26:21.624Z,60.85
2023-03-02T00:28:48.741Z,60.83
2023-03-02T00:31:16.072Z,60.44
2023-03-02T00:33:43.381Z,60.16
2023-03-02T00:36:20.719Z,60.15
2023-03-02T00:38:48.246Z,60.13
2023-03-02T00:41:16.588Z,59.77
2023-03-02T00:43:43.876Z,59.92
2023-03-02T00:46:16.019Z,59.98
2023-03-02T00:48:43.767Z,59.96
2023-03-02T00:51:11.055Z,59.99
2023-03-02T00:53:38.229Z,60.46
2023-03-02T00:56:06.138Z,60.23
2023-03-02T00:58:36.840Z,60.65
2023-03-02T01:01:09.730Z,60.13
2023-03-02T01:03:39.507Z,60.38
2023-03-02T01:06:14.000Z,60.42
2023-03-02T01:08:41.032Z,60.84
2023-03-02T01:11:19.914Z,60.29
2023-03-02T01:13:47.643Z,60.98
2023-03-02T01:16:15.319Z,61.22
2023-03-02T01:18:42.839Z,60.71
2023-03-02T01:21:12.925Z,61.25
2023-03-02T01:23:40.009Z,60.72
2023-03-02T01:26:07.972Z,61.33
2023-03-02T01:28:34.972Z,60.27
2023-03-02T01:31:03.377Z,60.37
2023-03-02T01:33:31.394Z,60.09
2023-03-02T01:35:58.459Z,60.40
2023-03-02T01:38:25.754Z,60.08
2023-03-02T01:40:52.922Z,60.02
2023-03-02T01:43:20.241Z,60.46
2023-03-02T01:46:08.435Z,60.55
2023-03-02T01:49:13.790Z,60.73
2023-03-02T01:52:00.486Z,59.98
2023-03-02T01:54:27.954Z,59.93
2023-03-02T01:57:02.525Z,60.59
2023-03-02T01:59:31.941Z,60.74
2023-03-02T02:02:01.847Z,60.69
2023-03-02T02:04:31.204Z,59.96
2023-03-02T02:07:03.587Z,60.72
2023-03-02T02:09:34.873Z,60.59
2023-03-02T02:12:02.619Z,60.26
2023-03-02T02:14:29.854Z,59.93
2023-03-02T02:16:56.954Z,59.36
2023-03-02T02:19:26.696Z,60.40
2023-03-02T02:21:53.778Z,60.41
2023-03-02T02:24:46.815Z,59.90
2023-03-02T02:27:15.049Z,60.14
2023-03-02T02:29:49.751Z,59.98
2023-03-02T02:32:22.130Z,59.82
2023-03-02T02:35:02.769Z,59.87
2023-03-02T02:37:42.082Z,59.77
2023-03-02T02:40:17.685Z,59.54
2023-03-02T02:42:50.467Z,59.17
2023-03-02T02:45:26.409Z,59.41
2023-03-02T02:47:55.696Z,59.59
2023-03-02T02:50:30.987Z,59.35
2023-03-02T02:53:04.048Z,59.76
2023-03-02T02:55:33.570Z,60.15
2023-03-02T02:58:10.112Z,59.73
2023-03-02T03:00:38.573Z,60.07
2023-03-02T03:03:29.435Z,60.02
2023-03-02T03:06:00.896Z,59.23
2023-03-02T03:08:46.293Z,58.99
2023-03-02T03:11:23.778Z,59.22
2023-03-02T03:13:57.511Z,60.08
2023-03-02T03:16:28.228Z,59.67
2023-03-02T03:18:58.781Z,59.31
2023-03-02T03:21:25.842Z,59.37
2023-03-02T03:23:53.863Z,59.34
2023-03-02T03:26:20.963Z,59.41
2023-03-02T03:28:48.748Z,59.81
2023-03-02T03:31:16.471Z,59.76
2023-03-02T03:33:43.805Z,59.60
2023-03-02T03:36:11.030Z,59.20
2023-03-02T03:38:38.779Z,59.62
2023-03-02T03:41:05.834Z,59.48
2023-03-02T03:43:32.900Z,59.47
2023-03-02T03:45:59.948Z,59.42
2023-03-02T03:48:27.022Z,58.90
2023-03-02T03:50:54.105Z,59.08
2023-03-02T03:53:21.364Z,59.72
2023-03-02T03:55:48.530Z,59.63
2023-03-02T03:58:15.587Z,59.59
2023-03-02T04:00:42.736Z,59.08
2023-03-02T04:03:11.532Z,59.47
2023-03-02T04:05:38.550Z,59.59
2023-03-02T04:08:06.172Z,59.44
2023-03-02T04:10:34.190Z,58.85
2023-03-02T04:13:02.396Z,58.52
2023-03-02T04:15:29.982Z,59.11
2023-03-02T04:17:59.561Z,58.76
2023-03-02T04:20:28.346Z,58.80
2023-03-02T04:22:57.627Z,58.82
2023-03-02T04:25:27.925Z,58.79
2023-03-02T04:27:59.522Z,59.50
2023-03-02T04:30:29.759Z,58.75
2023-03-02T04:32:57.756Z,59.21
2023-03-02T04:35:27.969Z,59.21
2023-03-02T04:37:55.579Z,58.57
2023-03-02T04:40:22.749Z,59.05
2023-03-02T04:42:49.724Z,59.05
2023-03-02T04:45:16.948Z,58.76
2023-03-02T04:47:44.088Z,59.17
2023-03-02T04:50:13.758Z,58.99
2023-03-02T04:52:41.980Z,58.92
2023-03-02T04:55:09.571Z,58.87
2023-03-02T04:57:36.632Z,58.71
2023-03-02T05:00:05.080Z,58.71
2023-03-02T05:02:32.596Z,59.20
2023-03-02T05:04:59.676Z,58.80
2023-03-02T05:07:26.901Z,58.82
2023-03-02T05:09:53.898Z,58.52
2023-03-02T05:12:21.858Z,58.65
2023-03-02T05:14:48.968Z,58.71
2023-03-02T05:17:16.442Z,57.86
2023-03-02T05:19:43.475Z,57.87
2023-03-02T05:22:10.518Z,58.12
2023-03-02T05:24:38.136Z,58.33
2023-03-02T05:27:05.140Z,58.23
2023-03-02T05:29:32.107Z,57.92
2023-03-02T05:31:59.145Z,57.98
2023-03-02T05:34:26.182Z,57.92
2023-03-02T05:36:53.311Z,57.75
2023-03-02T05:39:20.330Z,58.06
2023-03-02T05:41:47.299Z,57.93
2023-03-02T05:44:14.353Z,58.55
2023-03-02T05:46:41.834Z,58.45
2023-03-02T05:49:09.129Z,58.12
2023-03-02T05:51:36.194Z,57.77
2023-03-02T05:54:03.240Z,58.42
2023-03-02T05:56:30.444Z,57.81
2023-03-02T05:58:57.513Z,57.99
2023-03-02T06:01:24.528Z,57.75
2023-03-02T06:03:51.536Z,57.70
2023-03-02T06:06:18.686Z,57.96
2023-03-02T06:08:45.731Z,57.34
2023-03-02T06:11:13.237Z,57.14
2023-03-02T06:13:40.843Z,57.27
2023-03-02T06:16:09.138Z,57.36
2023-03-02T06:18:39.187Z,56.41
2023-03-02T06:21:07.621Z,56.46
2023-03-02T06:23:34.713Z,55.79
2023-03-02T06:26:08.422Z,56.10
2023-03-02T06:28:49.714Z,55.67
2023-03-02T06:31:18.900Z,55.44
2023-03-02T06:33:45.942Z,55.72
2023-03-02T06:36:13.075Z,55.41
2023-03-02T06:38:40.188Z,55.36
2023-03-02T06:41:07.190Z,55.02
2023-03-02T06:43:34.175Z,54.65
2023-03-02T06:46:01.213Z,54.60
2023-03-02T06:48:28.326Z,54.61
2023-03-02T06:50:55.324Z,54.11
2023-03-02T06:53:23.621Z,54.18
2023-03-02T06:55:51.107Z,54.09
2023-03-02T06:58:18.177Z,53.94
2023-03-02T07:00:45.229Z,54.60
2023-03-02T07:03:12.211Z,54.65
2023-03-02T07:05:39.213Z,53.75
2023-03-02T07:08:06.255Z,53.92
2023-03-02T07:10:33.484Z,53.95
2023-03-02T07:13:00.672Z,54.32
2023-03-02T07:15:27.687Z,54.56
2023-03-02T07:17:54.750Z,53.75
2023-03-02T07:20:21.917Z,53.49
2023-03-02T07:22:49.009Z,53.74
2023-03-02T07:25:15.991Z,53.79
2023-03-02T07:27:43.401Z,53.96
2023-03-02T07:30:11.285Z,53.61
2023-03-02T07:32:38.385Z,53.79
2023-03-02T07:35:05.733Z,53.09
2023-03-02T07:37:32.957Z,53.31
2023-03-02T07:40:00.935Z,53.37
2023-03-02T07:42:28.246Z,53.22
2023-03-02T07:44:58.001Z,53.05
2023-03-02T07:47:25.500Z,52.71
2023-03-02T07:49:52.598Z,52.56
2023-03-02T07:52:19.694Z,53.00
2023-03-02T07:54:46.716Z,52.50
2023-03-02T07:57:16.354Z,52.62
2023-03-02T07:59:43.979Z,52.46
2023-03-02T08:02:15.298Z,52.69
2023-03-02T08:04:43.018Z,52.77
2023-03-02T08:07:10.240Z,52.86
2023-03-02T08:09:38.713Z,52.25
2023-03-02T08:12:05.900Z,52.20
2023-03-02T08:14:32.940Z,51.42
2023-03-02T08:16:59.948Z,51.40
2023-03-02T08:19:27.062Z,51.72
2023-03-02T08:21:54.129Z,51.67
2023-03-02T08:24:21.185Z,51.57
2023-03-02T08:26:48.172Z,51.50
2023-03-02T08:29:15.190Z,51.59
2023-03-02T08:31:42.273Z,50.35
2023-03-02T08:34:09.324Z,49.19
2023-03-02T08:36:36.393Z,49.10
2023-03-02T08:39:03.381Z,47.78
2023-03-02T08:41:30.815Z,47.75
2023-03-02T08:43:58.019Z,47.90
2023-03-02T08:46:25.014Z,48.42
2023-03-02T08:48:52.218Z,47.89
2023-03-02T08:51:24.797Z,48.03
2023-03-02T08:53:55.455Z,48.69
2023-03-02T08:56:29.013Z,49.42
2023-03-02T08:58:59.000Z,49.29
2023-03-02T09:01:29.931Z,48.71
2023-03-02T09:03:59.892Z,48.87
2023-03-02T09:06:32.106Z,48.80
2023-03-02T09:08:59.881Z,49.00
2023-03-02T09:11:27.922Z,49.45
2023-03-02T09:13:55.158Z,49.17
2023-03-02T09:16:24.342Z,48.67
2023-03-02T09:18:51.999Z,49.20
2023-03-02T09:21:19.713Z,48.95
2023-03-02T09:23:46.971Z,49.04
2023-03-02T09:26:14.050Z,49.19
2023-03-02T09:28:41.125Z,48.97
2023-03-02T09:31:09.130Z,49.19
2023-03-02T09:33:36.654Z,49.03
2023-03-02T09:36:08.282Z,48.97
2023-03-02T09:38:35.395Z,48.81
2023-03-02T09:41:08.426Z,48.99
2023-03-02T09:43:38.138Z,49.18
2023-03-02T09:46:17.765Z,48.29
2023-03-02T09:48:49.446Z,48.38
2023-03-02T09:51:33.691Z,48.35
2023-03-02T09:54:09.028Z,48.28
2023-03-02T09:56:57.877Z,48.33
2023-03-02T09:59:27.108Z,48.08
2023-03-02T10:02:03.123Z,47.03
2023-03-02T10:04:38.837Z,47.70
2023-03-02T10:07:15.105Z,47.51
2023-03-02T10:09:43.003Z,47.57
2023-03-02T10:12:22.002Z,47.33
2023-03-02T10:15:31.448Z,47.11
2023-03-02T10:18:12.592Z,47.05
2023-03-02T10:21:05.618Z,47.20
2023-03-02T10:24:14.159Z,45.54
2023-03-02T10:26:48.460Z,46.16
2023-03-02T10:29:42.888Z,46.23
2023-03-02T10:32:21.214Z,46.35
2023-03-02T10:34:50.318Z,46.68
2023-03-02T10:37:23.121Z,45.87
2023-03-02T10:39:50.232Z,46.04
2023-03-02T10:42:43.366Z,45.99
2023-03-02T10:45:31.183Z,45.71
2023-03-02T10:48:09.629Z,45.69
2023-03-02T10:50:37.740Z,46.06
2023-03-02T10:53:08.833Z,45.21
2023-03-02T10:55:35.917Z,45.26
2023-03-02T10:58:21.165Z,44.96
2023-03-02T11:01:05.716Z,45.81
2023-03-02T11:03:33.982Z,45.24
2023-03-02T11:06:17.864Z,44.82
2023-03-02T11:08:44.875Z,44.86
2023-03-02T11:11:23.335Z,45.04
2023-03-02T11:13:51.248Z,44.88
2023-03-02T11:16:18.258Z,45.34
2023-03-02T11:19:14.352Z,45.39
2023-03-02T11:21:44.880Z,45.70
2023-03-02T11:24:22.063Z,44.74
2023-03-02T11:26:54.975Z,44.35
2023-03-02T11:29:42.946Z,44.85
2023-03-02T11:32:38.952Z,45.41
2023-03-02T11:35:09.137Z,45.35
2023-03-02T11:38:15.534Z,44.29
2023-03-02T11:40:51.537Z,45.43
2023-03-02T11:43:18.626Z,45.30
2023-03-02T11:45:48.389Z,45.35
2023-03-02T11:48:15.320Z,45.44
2023-03-02T11:51:06.875Z,45.26
2023-03-02T11:53:43.281Z,46.12
2023-03-02T11:56:10.862Z,45.94
2023-03-02T11:58:39.490Z,46.04
2023-03-02T12:01:15.742Z,46.39
2023-03-02T12:03:45.039Z,46.66
2023-03-02T12:06:14.821Z,46.30
2023-03-02T12:08:44.511Z,46.80
2023-03-02T12:11:17.507Z,46.51
2023-03-02T12:13:57.592Z,46.21
2023-03-02T12:16:37.938Z,46.50
2023-03-02T12:19:17.143Z,46.64
2023-03-02T12:21:55.995Z,46.34
2023-03-02T12:24:32.645Z,46.38
2023-03-02T12:27:25.780Z,46.61
2023-03-02T12:30:11.312Z,47.26
2023-03-02T12:32:38.471Z,46.36
2023-03-02T12:35:08.243Z,47.49
2023-03-02T12:37:58.279Z,47.03
2023-03-02T12:40:56.107Z,47.80
2023-03-02T12:43:34.653Z,47.23
2023-03-02T12:46:33.764Z,47.58
2023-03-02T12:49:25.509Z,47.43
2023-03-02T12:52:03.961Z,47.41
2023-03-02T12:54:34.158Z,47.83
2023-03-02T12:57:19.323Z,48.54
2023-03-02T12:59:58.501Z,48.61
2023-03-02T13:02:47.426Z,48.45
2023-03-02T13:05:23.875Z,47.73
2023-03-02T13:08:04.455Z,47.73
2023-03-02T13:10:38.629Z,48.16
2023-03-02T13:13:25.794Z,48.93
2023-03-02T13:15:54.167Z,47.96
2023-03-02T13:18:22.667Z,48.47
2023-03-02T13:20:50.988Z,48.10
2023-03-02T13:23:19.267Z,48.97
2023-03-02T13:25:57.384Z,49.03
2023-03-02T13:28:30.395Z,48.48
2023-03-02T13:31:23.221Z,48.34
2023-03-02T13:33:52.657Z,48.47
2023-03-02T13:36:25.677Z,49.20
2023-03-02T13:38:56.046Z,48.84
2023-03-02T13:41:28.559Z,49.34
2023-03-02T13:43:56.205Z,49.23
2023-03-02T13:46:23.227Z,48.98
2023-03-02T13:49:10.229Z,49.62
2023-03-02T13:51:44.200Z,49.48
2023-03-02T13:54:25.270Z,49.64
2023-03-02T13:56:53.926Z,49.14
2023-03-02T13:59:22.336Z,49.09
2023-03-02T14:01:49.654Z,48.92
2023-03-02T14:04:19.087Z,49.31
2023-03-02T14:06:46.684Z,49.58
2023-03-02T14:09:14.561Z,49.46
2023-03-02T14:11:44.716Z,50.00
2023-03-02T14:14:18.103Z,49.78
2023-03-02T14:16:45.225Z,49.86
2023-03-02T14:19:18.603Z,49.93
2023-03-02T14:21:46.893Z,49.64
2023-03-02T14:24:14.506Z,49.89
2023-03-02T14:26:47.317Z,49.39
2023-03-02T14:29:14.241Z,49.33
2023-03-02T14:31:41.304Z,49.87
2023-03-02T14:34:16.016Z,49.64
2023-03-02T14:36:46.330Z,49.67
2023-03-02T14:39:30.632Z,49.77
2023-03-02T14:41:57.854Z,50.28
2023-03-02T14:44:25.171Z,50.31
2023-03-02T14:46:53.240Z,50.22
2023-03-02T14:49:20.728Z,50.65
2023-03-02T14:51:59.824Z,50.87
2023-03-02T14:54:30.653Z,50.33
2023-03-02T14:56:57.691Z,49.88
2023-03-02T14:59:24.708Z,50.15
2023-03-02T15:01:51.745Z,50.84
2023-03-02T15:04:18.839Z,50.69
2023-03-02T15:06:46.302Z,50.67
2023-03-02T15:09:13.422Z,50.93
2023-03-02T15:11:40.475Z,50.74
2023-03-02T15:14:07.453Z,50.99
2023-03-02T15:16:34.495Z,50.79
2023-03-02T15:19:01.570Z,51.41
2023-03-02T15:21:28.683Z,50.97
2023-03-02T15:23:55.777Z,51.72
2023-03-02T15:26:22.861Z,51.94
2023-03-02T15:28:51.836Z,52.17
2023-03-02T15:31:19.787Z,52.24
2023-03-02T15:33:46.942Z,52.34
2023-03-02T15:36:14.392Z,52.24
2023-03-02T15:38:41.734Z,52.95
2023-03-02T15:41:13.921Z,52.54
2023-03-02T15:43:41.213Z,52.53
2023-03-02T15:46:12.361Z,52.86
2023-03-02T15:48:39.382Z,52.71
2023-03-02T15:51:08.398Z,52.91
2023-03-02T15:53:38.246Z,52.93
2023-03-02T15:56:12.364Z,53.38
2023-03-02T15:58:40.488Z,53.17
2023-03-02T16:01:08.992Z,53.47
2023-03-02T16:03:36.682Z,53.84
2023-03-02T16:06:04.010Z,54.24
2023-03-02T16:08:31.348Z,54.29
2023-03-02T16:11:00.474Z,54.41
2023-03-02T16:13:30.035Z,53.79
2023-03-02T16:15:57.453Z,54.56
2023-03-02T16:18:24.440Z,55.02
2023-03-02T16:20:51.419Z,54.87
2023-03-02T16:23:18.473Z,56.02
2023-03-02T16:25:47.588Z,54.93
2023-03-02T16:28:16.890Z,54.83
2023-03-02T16:30:44.481Z,55.26
2023-03-02T16:33:17.147Z,55.14
2023-03-02T16:35:44.745Z,55.48
2023-03-02T16:38:11.857Z,55.50
2023-03-02T16:40:40.290Z,56.34
2023-03-02T16:43:10.617Z,56.12
2023-03-02T16:45:37.938Z,56.42
2023-03-02T16:48:06.573Z,56.78
2023-03-02T16:50:33.821Z,56.77
2023-03-02T16:53:01.010Z,57.01
2023-03-02T16:55:28.285Z,56.27
2023-03-02T16:57:55.712Z,57.03
2023-03-02T17:00:23.607Z,57.76
2023-03-02T17:02:51.575Z,57.22
2023-03-02T17:05:20.512Z,57.55
2023-03-02T17:07:47.767Z,58.25
2023-03-02T17:10:20.267Z,58.87
2023-03-02T17:12:47.422Z,58.32
2023-03-02T17:15:14.512Z,58.07
2023-03-02T17:17:41.919Z,57.89
2023-03-02T17:20:10.517Z,57.89
2023-03-02T17:22:37.766Z,58.74
2023-03-02T17:25:05.181Z,58.91
2023-03-02T17:27:32.399Z,58.60
2023-03-02T17:29:59.522Z,58.17
2023-03-02T17:32:26.714Z,58.51
2023-03-02T17:34:53.930Z,59.15
2023-03-02T17:37:21.121Z,58.39
2023-03-02T17:39:51.302Z,58.88
2023-03-02T17:42:19.409Z,59.43
2023-03-02T17:44:46.449Z,59.58
2023-03-02T17:47:15.149Z,59.81
2023-03-02T17:49:45.857Z,60.05
2023-03-02T17:52:14.437Z,60.58
2023-03-02T17:54:42.122Z,59.49
2023-03-02T17:57:09.620Z,59.78
2023-03-02T17:59:36.886Z,60.29
2023-03-02T18:02:04.145Z,60.45
2023-03-02T18:04:31.192Z,60.34
2023-03-02T18:06:58.255Z,60.69
2023-03-02T18:09:26.851Z,60.97
2023-03-02T18:11:53.821Z,61.15
2023-03-02T18:14:21.653Z,60.58
2023-03-02T18:16:48.734Z,60.00
2023-03-02T18:19:16.005Z,60.46
2023-03-02T18:21:43.052Z,60.14
2023-03-02T18:24:10.099Z,59.90
2023-03-02T18:26:37.696Z,60.95
2023-03-02T18:29:05.303Z,60.46
2023-03-02T18:31:34.466Z,61.42
2023-03-02T18:34:03.023Z,60.61
2023-03-02T18:36:30.327Z,61.10
2023-03-02T18:38:57.352Z,61.60
2023-03-02T18:41:25.112Z,60.98
2023-03-02T18:43:52.588Z,61.41
2023-03-02T18:46:26.742Z,61.74
2023-03-02T18:48:54.856Z,61.39
2023-03-02T18:51:23.815Z,61.29
2023-03-02T18:53:51.557Z,61.08
2023-03-02T18:56:18.985Z,60.87
2023-03-02T18:58:46.236Z,60.65
2023-03-02T19:01:13.443Z,61.12
2023-03-02T19:03:41.955Z,61.09
2023-03-02T19:06:09.411Z,61.11
2023-03-02T19:08:36.778Z,61.11
2023-03-02T19:11:05.893Z,60.74
2023-03-02T19:13:33.537Z,61.97
2023-03-02T19:16:02.189Z,61.68
2023-03-02T19:18:30.153Z,61.67
2023-03-02T19:20:57.868Z,61.59
2023-03-02T19:23:25.384Z,61.50
2023-03-02T19:25:53.043Z,61.69
2023-03-02T19:28:21.827Z,61.24
2023-03-02T19:30:49.793Z,61.65
2023-03-02T19:33:17.888Z,61.18
2023-03-02T19:35:45.300Z,61.11
2023-03-02T19:38:12.901Z,61.28
2023-03-02T19:40:40.499Z,61.76
2023-03-02T19:43:07.680Z,61.36
2023-03-02T19:45:35.869Z,62.16
2023-03-02T19:48:04.072Z,61.34
2023-03-02T19:50:31.750Z,61.77
2023-03-02T19:52:59.184Z,61.73
2023-03-02T19:55:27.386Z,61.42
2023-03-02T19:58:00.241Z,61.99
2023-03-02T20:00:29.369Z,61.88
2023-03-02T20:02:56.857Z,61.74
2023-03-02T20:05:26.073Z,61.46
2023-03-02T20:07:53.762Z,62.08
2023-03-02T20:10:30.336Z,61.58
2023-03-02T20:12:59.490Z,61.92
2023-03-02T20:15:31.889Z,61.93
2023-03-02T20:18:02.552Z,62.06
2023-03-02T20:20:30.998Z,61.87
2023-03-02T20:23:00.214Z,62.28
2023-03-02T20:25:28.445Z,62.04
2023-03-02T20:27:57.424Z,62.63
2023-03-02T20:30:29.316Z,62.96
2023-03-02T20:32:57.995Z,62.67
2023-03-02T20:35:26.153Z,62.58
2023-03-02T20:37:54.945Z,62.62
2023-03-02T20:40:23.365Z,63.13
2023-03-02T20:42:50.427Z,62.70
2023-03-02T20:45:17.635Z,62.54
2023-03-02T20:47:44.835Z,62.38
2023-03-02T20:50:16.377Z,63.13
2023-03-02T20:52:43.491Z,63.29
2023-03-02T20:55:11.983Z,63.31
2023-03-02T20:57:39.877Z,63.08
2023-03-02T21:00:11.951Z,63.17
2023-03-02T21:02:38.992Z,62.95
2023-03-02T21:05:06.755Z,63.19
2023-03-02T21:07:35.957Z,63.71
2023-03-02T21:10:07.955Z,63.48
2023-03-02T21:12:35.507Z,63.50
2023-03-02T21:15:03.952Z,63.92
2023-03-02T21:17:31.694Z,63.69
2023-03-02T21:19:58.681Z,63.43
2023-03-02T21:22:25.873Z,63.94
2023-03-02T21:24:55.980Z,64.10
2023-03-02T21:27:23.142Z,63.54
2023-03-02T21:29:50.229Z,63.22
2023-03-02T21:32:17.646Z,63.54
2023-03-02T21:34:45.079Z,63.30
2023-03-02T21:37:12.156Z,63.33
2023-03-02T21:39:39.175Z,63.83
2023-03-02T21:42:06.294Z,63.31
2023-03-02T21:44:33.349Z,64.01
2023-03-02T21:47:00.373Z,64.13
2023-03-02T21:49:27.445Z,64.49
2023-03-02T21:51:54.449Z,64.40
2023-03-02T21:54:21.520Z,64.06
2023-03-02T21:56:48.513Z,64.19
2023-03-02T21:59:15.535Z,64.67
2023-03-02T22:01:42.706Z,64.61
2023-03-02T22:04:09.725Z,64.91
2023-03-02T22:06:37.789Z,65.61
2023-03-02T22:09:05.038Z,65.26
2023-03-02T22:11:36.894Z,65.45
2023-03-02T22:14:16.275Z,65.48
2023-03-02T22:16:47.488Z,65.54
2023-03-02T22:19:31.357Z,65.80
2023-03-02T22:22:00.448Z,65.61
2023-03-02T22:24:30.522Z,65.81
2023-03-02T22:27:20.979Z,65.74
2023-03-02T22:29:48.990Z,65.68
2023-03-02T22:32:25.649Z,66.30
2023-03-02T22:34:59.619Z,65.54
2023-03-02T22:37:28.875Z,65.54
2023-03-02T22:40:00.980Z,65.48
2023-03-02T22:42:30.679Z,66.01
2023-03-02T22:45:13.040Z,66.79
2023-03-02T22:47:40.174Z,65.89
2023-03-02T22:50:29.078Z,66.69
2023-03-02T22:52:57.840Z,66.31
2023-03-02T22:55:34.021Z,65.90
2023-03-02T22:58:22.354Z,66.77
2023-03-02T23:00:49.444Z,66.49
2023-03-02T23:03:18.879Z,66.24
2023-03-02T23:05:49.294Z,66.16
2023-03-02T23:08:25.094Z,66.41
2023-03-02T23:10:54.240Z,66.43
2023-03-02T23:13:26.933Z,66.68
2023-03-02T23:15:55.144Z,66.63
2023-03-02T23:18:28.833Z,66.17
2023-03-02T23:20:56.387Z,66.62
2023-03-02T23:23:24.809Z,66.13
2023-03-02T23:25:51.928Z,65.80
2023-03-02T23:28:18.929Z,65.88
2023-03-02T23:30:45.907Z,66.54
2023-03-02T23:33:12.935Z,66.54
2023-03-02T23:35:40.049Z,66.46
2023-03-02T23:38:07.055Z,66.19
2023-03-02T23:40:34.635Z,65.70
2023-03-02T23:43:01.657Z,65.96
2023-03-02T23:45:28.720Z,65.89
2023-03-02T23:47:55.690Z,66.18
2023-03-02T23:50:22.716Z,65.82
2023-03-02T23:52:49.706Z,66.21
2023-03-02T23:55:16.912Z,65.70
2023-03-02T23:57:43.876Z,65.68
